Pula, Croatia

3:03 AM CEST on July 11, 2014 (GMT +0200)
Astronomical observatory Pula (ICROATIA7) Elev 92 ft | 44.87 °N, 13.85 °E | Change Station

Current weather conditions updated 4 minutes ago

Clear
Clear
61.9 °F
Feels Like 61.9 °F
N
0.7
Wind Variable Wind from North
Gusts 3.8 mph

Today is forecast to be nearly the same temperature as yesterday.

Today
High -- | Low -- °F
--% Chance of Precip.
Yesterday
High -- | Low -- °F
Precip. -- in
5:28 AM 8:50 PM
Waxing Gibbous, 97% visible
Pressure 29.74 in
Visibility -9999.0 miles
Clouds
Dew Point 54 °F
Humidity 77%
Rainfall 0.00 in
Snow Depth Not available.
UV Not available.
Pollen Not available.
Air Quality Not available.
Flu Activity Not available.
METAR LDPL 110100Z VRB01KT CAVOK 14/12 Q1007 NOSIG

More Conditions Fewer Conditions

Pressure 29.74 in
Visibility -9999.0 miles
Clouds
Dew Point 54 °F
Humidity 77%
Rainfall 0.00 in
Snow Depth Not available.
UV Not available.
Pollen Not available.
Air Quality Not available.
Flu Activity Not available.
METAR LDPL 110100Z VRB01KT CAVOK 14/12 Q1007 NOSIG

More Conditions Fewer Conditions

10-Day Weather Forecast

Almanac

Astronomy

Jul. 11, 2014 Rise Set
Actual Time 5:28 AM CEST 8:50 PM CEST
Civil Twilight 4:52 AM CEST 9:26 PM CEST
Nautical Twilight 4:04 AM CEST 10:14 PM CEST
Astronomical Twilight 3:04 AM CEST 11:13 PM CEST
Moon 7:41 PM CEST 4:25 AM CEST
Length of Visible Light 16h 34m
Length of Day
15h 21m
Tomorrow will be 1m 25s shorter.
Waxing Gibbous, 97% of the Moon is Illuminated
Jul 10
Waxing Gibbous
Jul 12
Full
Jul 18
Last Quarter
Jul 26
New
Aug 3
First Quarter

Yesterday's Extremes

Country Highs Country Lows

Community

WunderPhotos

Upload Photos

1,732,320 photos uploaded!

Nearby

Snow Depth

Not available.

Earthquake Activity

City Distance Mag. Time & Date
No recent earthquake activity has been reported nearby.
Minimum magnitude displayed is 2.5.

Coastal Water Temperatures

Place Temperature
No Stations Reporting

Nearby Weather Stations

Station Location Temp. Dew Point Humidity Wind Precip. Elev Updated Type
Astronomical observatory Pula, Pula - Istra 61.9 °F 54 °F 77% North  at  0.7 mph 0.00 in / hr 92 ft 2:58 AM CEST Normal
Medulin, Medulin 60.8 °F 43 °F 51% North  at  0.0 mph 0.00 in / hr 15 ft 3:00 AM CEST Normal
Premantura, Premantura 62.4 °F 53 °F 72% NNW  at  8.5 mph 0.00 in / hr 120 ft 3:00 AM CEST Normal
Zminj - Matkici, Zminj 54.3 °F 50 °F 84% NNE  at  0.0 mph 0.00 in / hr 1207 ft 3:01 AM CEST Normal
Zminj 55.4 °F 48 °F 75% North  at  6.0 mph 0.00 in / hr 1198 ft 3:03 AM CEST Rapid Fire
AC Valkanela, Funtana 57.4 °F 53 °F 84% NNE  at  2.5 mph 0.00 in / hr 30 ft 3:02 AM CEST Normal
Cres ,Test, Cres 64.8 °F 54 °F 69% ENE  at  0.0 mph 0.00 in / hr -10 ft 1:05 AM CEST Normal
Cres, Island Cres 64.4 °F 49 °F 58% ENE  at  4.9 mph 0.00 in / hr 0 ft 3:02 AM CEST Normal

Show More Stations Show Fewer Stations